Time;durP1;ratioP1;P1;durP2;ratioP2;P2;SDS_P1;SDS_P2;PMS_P1;PMS_P2;Temp;Humidity;BMP_temperature;BMP_pressure;BME280_temperature;BME280_humidity;BME280_pressure;Samples;Min_cycle;Max_cycle;Signal;HPM_P1;HPM_P2
2021/04/05 18:41:37;;;;;;;;;;;;;;;;;;5173335;27;19960;-71
2021/04/05 18:44:03;;;;;;;;;;;;;;;;;;5168589;27;19919;-73
2021/04/05 18:46:29;;;;;;;;;;;;;;;;;;5162590;27;19910;-73
2021/04/05 18:48:55;;;;;;;;;;;;;;;;;;5168540;27;19911;-73
2021/04/05 18:51:21;;;;;;;;;;;;;;;;;;5166470;27;19933;-72
2021/04/05 18:53:47;;;;;;;;;;;;;;;;;;5168432;27;19969;-70
2021/04/05 18:56:13;;;;;;;;;;;;;;;;;;5168608;27;20344;-72
2021/04/05 18:58:39;;;;;;;;;;;;;;;;;;5168496;27;20003;-71
2021/04/05 19:01:04;;;;;;;;;;;;;;;;;;5160372;27;19968;-72
2021/04/05 19:03:30;;;;;;;;;;;;;;;;;;5160257;27;19997;-72
2021/04/05 19:05:56;;;;;;;;;;;;;;;;;;5148991;27;19963;-70
2021/04/05 19:08:22;;;;;;;;;;;;;;;;;;5168055;27;19912;-70
2021/04/05 19:10:48;;;;;;;;;;;;;;;;;;5167837;27;20369;-70
2021/04/05 19:13:14;;;;;;;;;;;;;;;;;;5168221;27;19911;-72
2021/04/05 19:15:40;;;;;;;;;;;;;;;;;;5168055;27;19918;-74
2021/04/05 19:18:06;;;;;;;;;;;;;;;;;;5167884;27;19960;-78
2021/04/05 19:20:33;;;;;;;;;;;;;;;;;;5167783;27;19919;-79
2021/04/05 19:22:58;;;;;;;;;;;;;;;;;;5167631;27;19907;-79
2021/04/05 19:25:25;;;;;;;;;;;;;;;;;;5167385;27;19907;-79
2021/04/05 19:27:51;;;;;;;;;;;;;;;;;;5167895;27;20002;-80
2021/04/05 19:30:16;;;;;;;;;;;;;;;;;;5149179;27;20063;-82
2021/04/05 19:32:42;;;;;;;;;;;;;;;;;;5162301;27;20365;-83
2021/04/05 19:35:08;;;;;;;;;;;;;;;;;;5162664;27;19911;-83
2021/04/05 20:24:18;;;;;;;7.30;2.42;;;;;;;;;;5093544;27;20378;-70
2021/04/05 20:26:46;;;;;;;10.35;2.80;;;;;;;;;;5088191;28;20056;-69
2021/04/05 20:29:24;;;;;;;9.77;2.80;;;;;;;;;;5087861;28;20029;-69
2021/04/05 20:31:59;;;;;;;12.95;3.05;;;;;;;;;;5071132;28;20636;-71
2021/04/05 20:34:34;;;;;;;12.73;2.63;;;;;;;;;;5087819;28;20467;-71
2021/04/05 20:37:07;;;;;;;10.70;2.70;;;;;;;;;;5084085;28;20382;-69
2021/04/05 20:39:41;;;;;;;7.35;2.50;;;;;;;;;;5088066;28;20339;-70
2021/04/05 20:42:07;;;;;;;10.53;3.07;;;;;;;;;;5077800;28;20503;-75
2021/04/05 20:44:39;;;;;;;9.85;2.50;;;;;;;;;;5088138;28;20028;-78
2021/04/05 20:48:00;;;;;;;7.60;2.67;;;;;;;;;;5108148;27;20431;-77
2021/04/05 20:50:27;;;;;;;9.05;2.55;;;;;;;;;;5107632;28;20032;-80
2021/04/05 20:53:08;;;;;;;7.07;2.28;;;;;;;;;;5068746;28;57886;-74
2021/04/05 20:56:24;;;;;;;5.80;2.15;;;;;;;19.32;42.21;101726.00;5058693;27;20125;-72
2021/04/05 20:58:55;;;;;;;10.43;2.28;;;;;;;19.32;42.23;101731.31;5052111;28;53642;-73
2021/04/05 21:01:24;;;;;;;6.22;2.20;;;;;;;19.26;42.38;101723.09;5046868;28;20044;-74
2021/04/05 21:03:54;;;;;;;7.30;2.00;;;;;;;19.39;42.32;101731.59;5047857;28;63706;-77
2021/04/05 21:06:19;;;;;;;6.85;2.17;;;;;;;19.12;42.58;101724.41;5047075;28;20466;-76
2021/04/05 21:08:45;;;;;;;7.80;2.10;;;;;;;19.12;42.19;101730.53;5047632;28;20116;-77
2021/04/05 21:11:15;;;;;;;7.93;2.67;;;;;;;19.16;41.98;101723.13;5045670;28;20021;-73
2021/04/05 21:14:08;;;;;;;9.25;2.50;;;;;;;19.28;41.98;101727.28;5057418;28;20492;-74
2021/04/05 21:16:33;;;;;;;7.93;2.13;;;;;;;19.27;41.97;101717.66;5048731;28;20037;-75
2021/04/05 21:19:06;;;;;;;5.55;2.10;;;;;;;19.94;41.29;101721.84;5048080;28;20115;-74
2021/04/05 21:21:35;;;;;;;6.97;1.75;;;;;;;19.51;41.63;101719.81;5050127;28;20020;-72
2021/04/05 21:24:07;;;;;;;6.72;1.77;;;;;;;19.46;41.82;101724.72;5046977;28;20068;-72
2021/04/05 21:26:35;;;;;;;7.32;1.85;;;;;;;19.37;42.11;101717.59;5046474;28;20033;-81
2021/04/05 21:29:21;;;;;;;6.57;1.65;;;;;;;19.36;41.90;101723.91;5052759;28;20021;-78
2021/04/05 21:31:59;;;;;;;6.57;1.83;;;;;;;20.18;40.23;101727.41;5061430;28;20550;-74
2021/04/05 21:34:34;;;;;;;5.35;1.80;;;;;;;19.39;41.43;101728.94;5051160;28;20033;-75
2021/04/05 21:37:21;;;;;;;5.57;1.60;;;;;;;19.23;41.70;101721.56;5052233;28;20048;-79
2021/04/05 21:39:48;;;;;;;4.97;1.80;;;;;;;19.22;41.54;101722.56;5046219;28;20036;-80
2021/04/05 21:42:28;;;;;;;5.72;1.80;;;;;;;19.14;41.69;101720.63;5049356;28;20034;-76
2021/04/05 21:44:55;;;;;;;6.53;2.08;;;;;;;19.15;41.44;101727.59;5054210;28;20373;-74
2021/04/05 21:47:22;;;;;;;7.93;1.75;;;;;;;19.19;41.78;101721.03;5063389;28;20136;-73
2021/04/05 21:49:48;;;;;;;5.00;1.50;;;;;;;19.25;41.42;101716.13;5050857;28;20025;-74
2021/04/05 21:52:18;;;;;;;5.72;1.60;;;;;;;19.22;41.60;101720.75;5052438;28;20024;-71
2021/04/05 21:54:54;;;;;;;5.03;1.83;;;;;;;19.21;41.57;101723.53;5047962;28;20042;-73
2021/04/05 21:57:28;;;;;;;4.63;1.70;;;;;;;19.26;41.04;101720.44;5050378;28;20500;-75
2021/04/05 22:00:12;;;;;;;6.55;1.45;;;;;;;19.08;41.14;101718.53;5050929;28;20037;-74
2021/04/05 22:02:40;;;;;;;4.80;1.48;;;;;;;19.18;41.33;101726.47;5052275;28;20021;-75
2021/04/05 22:05:06;;;;;;;7.20;1.65;;;;;;;19.12;41.29;101719.09;5052292;28;20052;-74
2021/04/05 22:07:32;;;;;;;5.93;1.55;;;;;;;19.14;40.93;101722.44;5042511;28;20471;-77
2021/04/05 22:09:58;;;;;;;5.65;1.85;;;;;;;19.12;41.49;101722.59;5037717;28;20052;-74
2021/04/05 22:12:28;;;;;;;5.75;1.65;;;;;;;19.08;41.38;101717.72;5045571;28;20025;-74
2021/04/05 22:15:15;;;;;;;3.33;1.30;;;;;;;19.02;41.78;101724.41;5044206;28;20037;-73
2021/04/05 22:17:42;;;;;;;5.03;1.40;;;;;;;19.10;41.91;101721.88;5050672;28;20104;-73
2021/04/05 22:20:15;;;;;;;4.15;1.17;;;;;;;19.11;42.05;101730.69;5052637;28;20055;-75
2021/04/05 22:22:51;;;;;;;4.07;1.40;;;;;;;19.32;42.08;101727.81;5052477;28;20029;-75
2021/04/05 22:25:16;;;;;;;4.82;1.80;;;;;;;19.15;42.30;101722.28;5052110;28;20025;-72
2021/04/05 22:27:42;;;;;;;11.77;1.95;;;;;;;18.83;42.82;101724.47;5050866;28;20497;-70
2021/04/05 22:30:10;;;;;;;10.15;1.90;;;;;;;18.93;43.26;101724.44;5052446;28;20013;-80
2021/04/05 22:32:35;;;;;;;11.13;1.85;;;;;;;19.45;43.20;101721.25;5050695;28;20048;-74
2021/04/05 22:35:01;;;;;;;8.38;2.00;;;;;;;19.64;42.99;101722.97;5042680;28;20018;-73
2021/04/05 22:37:34;;;;;;;8.85;2.80;;;;;;;19.73;42.88;101719.44;5037947;28;20377;-83
2021/04/05 22:40:02;;;;;;;10.20;3.00;;;;;;;19.76;42.79;101724.44;5035172;28;20120;-79
2021/04/05 22:42:35;;;;;;;6.32;1.92;;;;;;;19.70;42.98;101711.78;5034425;28;20018;-75
2021/04/05 22:45:06;;;;;;;6.22;2.10;;;;;;;19.80;43.24;101725.84;5032120;28;20075;-77
2021/04/05 22:47:34;;;;;;;3.70;1.70;;;;;;;19.83;43.34;101730.00;5032780;28;20021;-76
2021/04/05 22:50:03;;;;;;;4.32;1.70;;;;;;;19.76;43.58;101728.94;5031745;28;20038;-76
2021/04/05 22:52:47;;;;;;;4.28;1.63;;;;;;;19.77;43.84;101726.13;5032739;28;20026;-82
2021/04/05 22:55:14;;;;;;;5.60;1.58;;;;;;;19.78;43.65;101730.44;5031558;28;20046;-75
2021/04/05 22:57:49;;;;;;;5.32;1.70;;;;;;;19.76;43.88;101726.28;5031581;28;20034;-74
2021/04/05 23:00:26;;;;;;;6.05;1.85;;;;;;;19.81;43.89;101726.69;5044584;28;20076;-74
2021/04/05 23:02:52;;;;;;;4.88;1.42;;;;;;;19.89;43.34;101721.44;5034893;28;20025;-72
2021/04/05 23:05:17;;;;;;;5.03;1.90;;;;;;;19.89;43.55;101722.28;5045302;28;20033;-76
2021/04/05 23:07:45;;;;;;;6.32;1.52;;;;;;;19.43;44.17;101723.19;5046992;28;20143;-77
2021/04/05 23:10:20;;;;;;;5.70;1.83;;;;;;;19.09;44.78;101719.38;5036889;28;20030;-78
2021/04/05 23:12:52;;;;;;;5.30;1.83;;;;;;;18.89;44.81;101721.25;5039419;28;20013;-79
2021/04/05 23:15:29;;;;;;;4.22;1.40;;;;;;;18.80;44.94;101727.38;5048234;28;20037;-79
2021/04/05 23:18:23;;;;;;;6.35;1.48;;;;;;;18.72;45.19;101719.31;5031720;28;20018;-78
2021/04/05 23:20:52;;;;;;;3.80;1.40;;;;;;;18.67;44.96;101716.25;5045724;28;20032;-79
2021/04/05 23:23:21;;;;;;;4.85;1.45;;;;;;;18.63;45.06;101725.47;5049795;28;20031;-78
2021/04/05 23:25:47;;;;;;;4.95;1.60;;;;;;;18.59;45.49;101711.63;5050246;28;20037;-78
2021/04/05 23:28:18;;;;;;;4.70;1.55;;;;;;;18.56;45.51;101717.22;5044264;28;20083;-78
2021/04/05 23:30:47;;;;;;;4.00;1.30;;;;;;;18.52;45.77;101714.97;5049934;28;20031;-78
2021/04/05 23:33:24;;;;;;;3.00;1.05;;;;;;;18.52;46.04;101707.00;5050256;28;20036;-78
2021/04/05 23:36:01;;;;;;;3.83;1.30;;;;;;;18.47;45.95;101710.09;5049755;28;20411;-79
2021/04/05 23:38:28;;;;;;;2.53;1.20;;;;;;;18.43;46.40;101705.19;5045166;28;20091;-79
2021/04/05 23:40:55;;;;;;;3.03;1.35;;;;;;;18.42;46.43;101704.38;5047534;28;20036;-79
2021/04/05 23:43:22;;;;;;;4.35;1.48;;;;;;;18.43;46.46;101705.19;5049852;28;20025;-77
2021/04/05 23:45:50;;;;;;;2.80;1.10;;;;;;;18.45;45.71;101703.22;5023103;28;20288;-78
2021/04/05 23:48:15;;;;;;;3.45;1.20;;;;;;;18.39;46.21;101701.97;5049967;28;20040;-76
2021/04/05 23:50:45;;;;;;;2.92;1.30;;;;;;;18.42;46.05;101695.56;5049157;28;20017;-78
2021/04/05 23:53:13;;;;;;;3.83;1.45;;;;;;;18.39;46.46;101691.38;5050822;28;20040;-78
2021/04/05 23:55:40;;;;;;;2.78;1.20;;;;;;;18.38;46.23;101698.50;5047367;28;20057;-78
2021/04/05 23:58:06;;;;;;;3.00;1.35;;;;;;;18.33;46.38;101690.16;5041276;28;20025;-79
